createdAt,value
2022-08-22T00:00:08.115Z,0
2022-08-22T00:01:07.345Z,0
2022-08-22T00:02:41.796Z,24.79
2022-08-22T00:02:42.672Z,0
2022-08-22T00:02:46.653Z,0.200
2022-08-22T00:03:02.621Z,0.109
2022-08-22T00:03:02.939Z,0
2022-08-22T00:03:07.585Z,0.239
2022-08-22T00:03:10.013Z,0
2022-08-22T00:03:10.106Z,0.109
2022-08-22T00:03:11.263Z,0.109
2022-08-22T00:03:17.627Z,0
2022-08-22T00:04:07.608Z,0
2022-08-22T00:05:06.995Z,0
2022-08-22T00:06:07.187Z,0
2022-08-22T00:07:07.113Z,0
2022-08-22T00:08:07.350Z,0
2022-08-22T00:09:07.469Z,0
2022-08-22T00:10:07.415Z,0
2022-08-22T00:11:07.565Z,0
2022-08-22T00:12:06.897Z,0
2022-08-22T00:13:07.130Z,0
2022-08-22T00:14:07.370Z,0
2022-08-22T00:15:07.613Z,0
2022-08-22T00:16:07.168Z,0
2022-08-22T00:17:07.335Z,0
2022-08-22T00:18:07.502Z,0
2022-08-22T00:19:06.996Z,0
2022-08-22T00:20:07.252Z,0
2022-08-22T00:21:07.408Z,0
2022-08-22T00:22:07.342Z,0
2022-08-22T00:23:07.467Z,0.109
2022-08-22T00:24:07.790Z,0
2022-08-22T00:25:07.147Z,0
2022-08-22T00:26:07.594Z,0.109
2022-08-22T00:27:06.835Z,0
2022-08-22T00:28:07.217Z,0
2022-08-22T00:29:07.237Z,0
2022-08-22T00:30:07.701Z,0
2022-08-22T00:31:06.912Z,0
2022-08-22T00:32:07.191Z,0
2022-08-22T00:33:07.253Z,0
2022-08-22T00:34:07.583Z,0
2022-08-22T00:35:07.680Z,0
2022-08-22T00:36:06.810Z,0.100
2022-08-22T00:37:07.136Z,0
2022-08-22T00:38:07.444Z,0.119
2022-08-22T00:39:07.483Z,0
2022-08-22T00:40:07.749Z,0
2022-08-22T00:41:07.007Z,0
2022-08-22T00:42:07.137Z,0
2022-08-22T00:43:07.401Z,0
2022-08-22T00:44:07.506Z,0
2022-08-22T00:45:08.040Z,0
2022-08-22T00:46:07.351Z,0
2022-08-22T00:47:07.342Z,0
2022-08-22T00:48:07.688Z,0
2022-08-22T00:49:07.144Z,0.109
2022-08-22T00:50:07.482Z,0
2022-08-22T00:51:07.612Z,0
2022-08-22T00:52:07.739Z,0
2022-08-22T00:53:07.188Z,0
2022-08-22T00:54:09.658Z,0
2022-08-22T00:55:07.764Z,0
2022-08-22T00:56:07.033Z,0
2022-08-22T00:57:07.478Z,0
2022-08-22T00:58:07.633Z,0
2022-08-22T00:59:22.679Z,0
2022-08-22T01:00:07.973Z,0
2022-08-22T01:01:07.535Z,0
2022-08-22T01:02:07.170Z,0
2022-08-22T01:03:07.872Z,0
2022-08-22T01:04:07.198Z,0
2022-08-22T01:05:07.644Z,0
2022-08-22T01:06:07.065Z,0
2022-08-22T01:07:07.327Z,0
2022-08-22T01:08:07.666Z,0.109
2022-08-22T01:09:07.004Z,0
2022-08-22T01:10:07.494Z,0
2022-08-22T01:11:07.659Z,0
2022-08-22T01:12:06.892Z,0
2022-08-22T01:13:07.220Z,0
2022-08-22T01:14:07.349Z,0
2022-08-22T01:15:07.804Z,0.109
2022-08-22T01:16:07.087Z,0
2022-08-22T01:17:07.507Z,0
2022-08-22T01:18:06.954Z,0
2022-08-22T01:19:07.366Z,0.109
2022-08-22T01:20:07.690Z,0.109
2022-08-22T01:21:06.934Z,0
2022-08-22T01:22:07.145Z,0
2022-08-22T01:23:07.274Z,0
2022-08-22T01:24:07.429Z,0
2022-08-22T01:25:07.135Z,0
2022-08-22T01:26:07.085Z,0
2022-08-22T01:27:07.360Z,0.109
2022-08-22T01:28:07.215Z,0.109
2022-08-22T01:29:10.370Z,0
2022-08-22T01:30:07.809Z,0
2022-08-22T01:31:07.256Z,0
2022-08-22T01:32:07.779Z,0
2022-08-22T01:33:07.443Z,0
2022-08-22T01:34:12.857Z,0
2022-08-22T01:35:07.348Z,0
2022-08-22T01:36:08.023Z,0.109
2022-08-22T01:37:07.611Z,0
2022-08-22T01:38:06.823Z,0
2022-08-22T01:39:07.208Z,0
2022-08-22T01:40:07.734Z,0
2022-08-22T01:41:07.267Z,0.109
2022-08-22T01:42:06.969Z,0
2022-08-22T01:43:07.340Z,0
2022-08-22T01:44:07.443Z,0
2022-08-22T01:45:07.953Z,0
2022-08-22T01:46:07.017Z,0
2022-08-22T01:47:07.381Z,0.109
2022-08-22T01:48:07.798Z,0.109
2022-08-22T01:49:07.107Z,0
2022-08-22T01:50:07.584Z,0
2022-08-22T01:51:07.001Z,0.109
2022-08-22T01:52:07.023Z,0
2022-08-22T01:53:07.375Z,0
2022-08-22T01:54:07.470Z,0
2022-08-22T01:55:07.363Z,0
2022-08-22T01:56:07.486Z,0
2022-08-22T01:57:07.616Z,0.109
2022-08-22T01:58:06.863Z,0
2022-08-22T01:59:10.067Z,0
2022-08-22T02:00:08.609Z,0.109
2022-08-22T02:01:07.120Z,0.109
2022-08-22T02:02:07.515Z,0
2022-08-22T02:03:07.124Z,0
2022-08-22T02:04:07.245Z,0.109
2022-08-22T02:05:07.837Z,0
2022-08-22T02:06:07.099Z,0
2022-08-22T02:07:07.604Z,0
2022-08-22T02:08:07.107Z,0
2022-08-22T02:09:07.375Z,0
2022-08-22T02:10:07.116Z,0.109
2022-08-22T02:11:07.394Z,0
2022-08-22T02:12:07.274Z,0.100
2022-08-22T02:13:07.209Z,0.109
2022-08-22T02:14:07.587Z,0
2022-08-22T02:15:07.982Z,0.100
2022-08-22T02:16:07.152Z,0.119
2022-08-22T02:17:07.620Z,0
2022-08-22T02:18:07.607Z,0
2022-08-22T02:19:07.110Z,0
2022-08-22T02:20:07.552Z,0
2022-08-22T02:21:06.967Z,0
2022-08-22T02:22:07.178Z,0
2022-08-22T02:23:07.373Z,0
2022-08-22T02:24:07.649Z,0.109
2022-08-22T02:25:09.218Z,0.109
2022-08-22T02:26:06.967Z,0
2022-08-22T02:27:07.010Z,0
2022-08-22T02:28:07.239Z,0.109
2022-08-22T02:29:07.443Z,0.109
2022-08-22T02:30:08.339Z,0.109
2022-08-22T02:31:07.558Z,0.109
2022-08-22T02:32:07.132Z,0.109
2022-08-22T02:33:07.410Z,0.219
2022-08-22T02:34:07.907Z,0.109
2022-08-22T02:35:07.264Z,0
2022-08-22T02:36:07.192Z,0.109
2022-08-22T02:37:07.630Z,0.109
2022-08-22T02:38:07.217Z,0
2022-08-22T02:39:07.427Z,0
2022-08-22T02:40:07.866Z,0.109
2022-08-22T02:41:07.315Z,0.109
2022-08-22T02:42:07.347Z,0
2022-08-22T02:43:07.639Z,0
2022-08-22T02:44:06.915Z,0.109
2022-08-22T02:45:07.068Z,0.109
2022-08-22T02:46:07.248Z,0
2022-08-22T02:47:07.777Z,0
2022-08-22T02:48:06.981Z,0.109
2022-08-22T02:49:07.543Z,0
2022-08-22T02:50:12.970Z,0
2022-08-22T02:51:07.474Z,0
2022-08-22T02:52:07.663Z,0
2022-08-22T02:53:07.088Z,0
2022-08-22T02:54:07.271Z,0
2022-08-22T02:55:07.596Z,0
2022-08-22T02:56:07.001Z,0
2022-08-22T02:57:11.364Z,0
2022-08-22T02:58:07.470Z,0
2022-08-22T02:59:07.483Z,0
2022-08-22T03:00:31.290Z,0
2022-08-22T03:01:07.598Z,0.109
2022-08-22T03:02:07.298Z,0
2022-08-22T03:03:07.368Z,0
2022-08-22T03:04:07.960Z,0
2022-08-22T03:05:07.527Z,0
2022-08-22T03:06:07.546Z,0
2022-08-22T03:07:07.533Z,0
2022-08-22T03:08:07.441Z,0
2022-08-22T03:09:07.595Z,0
2022-08-22T03:10:07.263Z,0
2022-08-22T03:11:07.282Z,0
2022-08-22T03:12:07.351Z,0
2022-08-22T03:13:07.578Z,0
2022-08-22T03:14:07.677Z,0
2022-08-22T03:15:07.208Z,0
2022-08-22T03:16:07.295Z,0
2022-08-22T03:17:07.361Z,0
2022-08-22T03:18:07.517Z,0.109
2022-08-22T03:19:07.012Z,0.109
2022-08-22T03:20:07.125Z,0
2022-08-22T03:21:07.406Z,0
2022-08-22T03:22:07.649Z,0
2022-08-22T03:23:07.493Z,0
2022-08-22T03:24:07.378Z,0
2022-08-22T03:25:07.963Z,0.109
2022-08-22T03:26:07.537Z,0
2022-08-22T03:27:07.305Z,0
2022-08-22T03:28:07.696Z,0
2022-08-22T03:29:07.199Z,0.109
2022-08-22T03:30:07.799Z,0.109
2022-08-22T03:31:07.126Z,0
2022-08-22T03:32:07.374Z,0
2022-08-22T03:33:07.512Z,0
2022-08-22T03:34:07.575Z,0
2022-08-22T03:35:07.174Z,0.109
2022-08-22T03:36:07.406Z,0
2022-08-22T03:37:07.099Z,0
2022-08-22T03:38:07.337Z,0
2022-08-22T03:39:16.472Z,0
2022-08-22T03:40:07.245Z,0
2022-08-22T03:41:07.015Z,0
2022-08-22T03:42:07.089Z,0
2022-08-22T03:43:07.193Z,0
2022-08-22T03:44:07.206Z,0
2022-08-22T03:45:07.899Z,0
2022-08-22T03:46:07.076Z,13600
2022-08-22T03:47:07.498Z,13600
2022-08-22T03:48:07.381Z,13600
2022-08-22T03:49:07.525Z,0
2022-08-22T03:50:07.869Z,0
2022-08-22T03:51:07.243Z,13600
2022-08-22T03:52:07.168Z,13600
2022-08-22T03:53:07.406Z,0
2022-08-22T03:54:07.169Z,0
2022-08-22T03:55:07.162Z,13600
2022-08-22T03:56:07.164Z,0
2022-08-22T03:57:07.432Z,0
2022-08-22T03:58:07.809Z,0.050
2022-08-22T03:59:09.959Z,0.050
2022-08-22T04:00:08.515Z,0.050
2022-08-22T04:01:07.599Z,0
2022-08-22T04:02:41.867Z,0.620
2022-08-22T04:03:07.870Z,0.680
2022-08-22T04:04:07.144Z,1.240
2022-08-22T04:05:07.788Z,0.899
2022-08-22T04:06:12.858Z,1.129
2022-08-22T04:07:09.348Z,1.899
2022-08-22T04:08:07.267Z,2.940
2022-08-22T04:09:07.543Z,2.920
2022-08-22T04:10:07.321Z,4.25
2022-08-22T04:11:07.489Z,4.940
2022-08-22T04:12:06.994Z,6.519
2022-08-22T04:13:07.100Z,7.679
2022-08-22T04:14:07.267Z,9.390
2022-08-22T04:15:07.786Z,11.19
2022-08-22T04:16:07.261Z,13.67
2022-08-22T04:17:07.465Z,16.20
2022-08-22T04:18:07.020Z,19.36
2022-08-22T04:19:08.121Z,22.89
2022-08-22T04:20:07.337Z,26.70
2022-08-22T04:21:07.373Z,31.5
2022-08-22T04:22:07.355Z,36.70
2022-08-22T04:23:07.639Z,42.79
2022-08-22T04:24:07.649Z,49.5
2022-08-22T04:25:08.160Z,56.79
2022-08-22T04:26:11.944Z,65.5
2022-08-22T04:27:07.146Z,74
2022-08-22T04:28:07.367Z,85
2022-08-22T04:29:07.435Z,96
2022-08-22T04:30:07.938Z,106
2022-08-22T04:31:07.527Z,119
2022-08-22T04:32:09.787Z,131
2022-08-22T04:33:07.212Z,142
2022-08-22T04:34:07.383Z,154
2022-08-22T04:35:07.623Z,167
2022-08-22T04:36:07.860Z,181
2022-08-22T04:37:07.293Z,195
2022-08-22T04:38:11.925Z,210
2022-08-22T04:39:07.329Z,225
2022-08-22T04:40:07.825Z,242
2022-08-22T04:41:07.553Z,258
2022-08-22T04:42:29.147Z,275
2022-08-22T04:43:07.107Z,292
2022-08-22T04:44:07.505Z,309
2022-08-22T04:45:07.345Z,325
2022-08-22T04:46:07.915Z,341
2022-08-22T04:47:07.357Z,359
2022-08-22T04:48:07.577Z,380
2022-08-22T04:49:07.334Z,403
2022-08-22T04:50:06.973Z,424
2022-08-22T04:51:07.166Z,445
2022-08-22T04:52:07.405Z,464
2022-08-22T04:53:07.447Z,483
2022-08-22T04:54:07.829Z,499
2022-08-22T04:55:07.138Z,515
2022-08-22T04:56:07.767Z,532
2022-08-22T04:57:07.238Z,552
2022-08-22T04:58:07.682Z,574
2022-08-22T04:59:07.208Z,593
2022-08-22T05:00:08.706Z,609
2022-08-22T05:01:07.482Z,626
2022-08-22T05:02:07.859Z,647
2022-08-22T05:03:07.372Z,670
2022-08-22T05:04:07.740Z,693
2022-08-22T05:05:13.069Z,718
2022-08-22T05:06:07.325Z,740
2022-08-22T05:07:07.222Z,763
2022-08-22T05:08:07.821Z,787
2022-08-22T05:09:07.208Z,818
2022-08-22T05:10:09.268Z,849
2022-08-22T05:11:07.441Z,876
2022-08-22T05:12:07.753Z,901
2022-08-22T05:13:15.359Z,925
2022-08-22T05:14:07.775Z,947
2022-08-22T05:15:07.378Z,970
2022-08-22T05:16:07.131Z,994
2022-08-22T05:17:07.582Z,1019
2022-08-22T05:18:06.961Z,1045
2022-08-22T05:19:07.154Z,1073
2022-08-22T05:20:07.559Z,1101
2022-08-22T05:21:07.559Z,1128
2022-08-22T05:22:07.000Z,1150
2022-08-22T05:23:07.329Z,1187
2022-08-22T05:24:07.390Z,1214
2022-08-22T05:25:07.700Z,1240
2022-08-22T05:26:07.061Z,1276
2022-08-22T05:27:07.383Z,1303
2022-08-22T05:28:07.685Z,1331
2022-08-22T05:29:06.963Z,1355
2022-08-22T05:30:07.854Z,1377
2022-08-22T05:31:07.318Z,1399
2022-08-22T05:32:07.685Z,1418
2022-08-22T05:33:07.015Z,1431
2022-08-22T05:34:07.349Z,1440
2022-08-22T05:35:07.841Z,1449.
2022-08-22T05:36:07.143Z,1458
2022-08-22T05:37:08.203Z,1468
2022-08-22T05:38:07.455Z,1478
2022-08-22T05:39:07.328Z,1491
2022-08-22T05:40:07.896Z,1510
2022-08-22T05:41:08.707Z,1530
2022-08-22T05:42:07.229Z,1553
2022-08-22T05:43:07.807Z,1578
2022-08-22T05:44:07.428Z,1602
2022-08-22T05:45:11.598Z,1626
2022-08-22T05:46:07.804Z,1653
2022-08-22T05:47:07.415Z,1680
2022-08-22T05:48:07.896Z,1706
2022-08-22T05:49:07.440Z,1731
2022-08-22T05:50:07.368Z,1759
2022-08-22T05:51:07.315Z,1784
2022-08-22T05:52:07.624Z,1803
2022-08-22T05:53:07.232Z,1820
2022-08-22T05:54:07.081Z,1839
2022-08-22T05:55:07.367Z,1859
2022-08-22T05:56:07.638Z,1880
2022-08-22T05:57:08.049Z,1902
2022-08-22T05:58:07.198Z,1919
2022-08-22T05:59:08.508Z,1934
2022-08-22T06:00:07.998Z,1950
2022-08-22T06:01:07.255Z,1969
2022-08-22T06:02:07.831Z,1995
2022-08-22T06:03:07.551Z,2020
2022-08-22T06:04:07.741Z,2045
2022-08-22T06:05:11.396Z,2070
2022-08-22T06:06:07.773Z,2106
2022-08-22T06:07:07.377Z,2128
2022-08-22T06:08:07.232Z,2152
2022-08-22T06:09:07.561Z,2175
2022-08-22T06:10:07.372Z,2199
2022-08-22T06:11:07.041Z,2230
2022-08-22T06:12:07.327Z,2280
2022-08-22T06:13:11.528Z,2330
2022-08-22T06:14:07.267Z,2390
2022-08-22T06:15:11.861Z,2450
2022-08-22T06:16:07.205Z,2520
2022-08-22T06:17:07.357Z,2600
2022-08-22T06:18:07.577Z,2660
2022-08-22T06:19:19.426Z,2710
2022-08-22T06:20:07.669Z,2730
2022-08-22T06:21:07.419Z,2743.
2022-08-22T06:22:07.705Z,2748
2022-08-22T06:23:07.650Z,2750.
2022-08-22T06:24:07.353Z,2748.
2022-08-22T06:25:08.036Z,2732
2022-08-22T06:26:20.558Z,2705
2022-08-22T06:27:07.870Z,2681
2022-08-22T06:28:07.244Z,2675.
2022-08-22T06:29:07.501Z,2693
2022-08-22T06:30:08.193Z,2703.
2022-08-22T06:31:07.671Z,2696
2022-08-22T06:32:07.309Z,2685.
2022-08-22T06:33:07.549Z,2694
2022-08-22T06:34:07.242Z,2720
2022-08-22T06:35:07.327Z,2770
2022-08-22T06:36:07.583Z,2790.
2022-08-22T06:37:07.160Z,2789.
2022-08-22T06:38:07.497Z,2780
2022-08-22T06:39:07.843Z,2750
2022-08-22T06:40:07.549Z,2715
2022-08-22T06:41:07.022Z,2706.
2022-08-22T06:42:07.478Z,2708
2022-08-22T06:43:07.799Z,2726
2022-08-22T06:44:07.312Z,2739
2022-08-22T06:45:07.662Z,2760
2022-08-22T06:46:07.268Z,2810
2022-08-22T06:47:07.860Z,2900
2022-08-22T06:48:07.545Z,2958
2022-08-22T06:49:07.394Z,2920
2022-08-22T06:50:07.859Z,2875
2022-08-22T06:51:07.339Z,2867.
2022-08-22T06:52:07.833Z,2879
2022-08-22T06:53:07.110Z,2900
2022-08-22T06:54:07.719Z,2920
2022-08-22T06:55:07.232Z,2970
2022-08-22T06:56:07.891Z,3000
2022-08-22T06:57:07.307Z,3050
2022-08-22T06:58:07.803Z,3084
2022-08-22T06:59:07.273Z,3066.
2022-08-22T07:00:08.219Z,3080
2022-08-22T07:01:11.973Z,3130
2022-08-22T07:02:07.557Z,3170
2022-08-22T07:03:07.235Z,3230
2022-08-22T07:04:07.482Z,3300
2022-08-22T07:05:07.720Z,3400
2022-08-22T07:06:07.357Z,3500
2022-08-22T07:07:07.085Z,3700
2022-08-22T07:08:07.165Z,3790
2022-08-22T07:09:07.540Z,3870
2022-08-22T07:10:07.130Z,3901
2022-08-22T07:11:07.407Z,3872
2022-08-22T07:12:07.801Z,3877
2022-08-22T07:13:07.175Z,3900
2022-08-22T07:14:07.607Z,3950
2022-08-22T07:15:07.597Z,4000
2022-08-22T07:16:07.095Z,4060
2022-08-22T07:17:07.631Z,4110
2022-08-22T07:18:07.181Z,4190
2022-08-22T07:19:07.703Z,4270
2022-08-22T07:20:07.187Z,4300
2022-08-22T07:21:07.844Z,4480
2022-08-22T07:22:07.804Z,4530
2022-08-22T07:23:07.543Z,4600
2022-08-22T07:24:07.834Z,4800
2022-08-22T07:25:07.742Z,4920
2022-08-22T07:26:07.180Z,4930
2022-08-22T07:27:07.555Z,4860
2022-08-22T07:28:07.837Z,4900
2022-08-22T07:29:11.288Z,5000
2022-08-22T07:30:10.195Z,5100
2022-08-22T07:31:07.654Z,5300
2022-08-22T07:32:07.342Z,5500
2022-08-22T07:33:25.694Z,5700
2022-08-22T07:34:07.567Z,6000
2022-08-22T07:35:07.418Z,6000
2022-08-22T07:36:07.224Z,6000
2022-08-22T07:37:07.600Z,7000
2022-08-22T07:38:07.768Z,8000
2022-08-22T07:39:07.446Z,9000
2022-08-22T07:40:07.914Z,9000
2022-08-22T07:41:07.622Z,10000
2022-08-22T07:42:07.439Z,11000
2022-08-22T07:43:07.942Z,11000
2022-08-22T07:44:07.430Z,10000
2022-08-22T07:45:07.663Z,0
2022-08-22T07:46:07.246Z,0
2022-08-22T07:47:07.734Z,30000
2022-08-22T07:48:07.176Z,30000
2022-08-22T07:49:09.932Z,30000
2022-08-22T07:50:07.718Z,20000
2022-08-22T07:51:07.368Z,30000
2022-08-22T07:52:07.603Z,30000
2022-08-22T07:53:07.297Z,0
2022-08-22T07:54:07.843Z,0
2022-08-22T07:55:07.521Z,10000
2022-08-22T07:56:07.790Z,10000
2022-08-22T07:57:07.556Z,0
2022-08-22T07:58:07.112Z,10000
2022-08-22T07:59:12.684Z,12800
2022-08-22T08:00:08.755Z,12810
2022-08-22T08:01:07.739Z,13000
2022-08-22T08:02:07.708Z,13100
2022-08-22T08:03:07.324Z,13000
2022-08-22T08:04:07.690Z,14000
2022-08-22T08:05:07.384Z,10000
2022-08-22T08:06:08.014Z,0
2022-08-22T08:07:07.456Z,0
2022-08-22T08:08:07.641Z,0
2022-08-22T08:09:07.577Z,0
2022-08-22T08:10:11.226Z,0
2022-08-22T08:11:07.396Z,0
2022-08-22T08:12:07.833Z,0
2022-08-22T08:13:07.415Z,0
2022-08-22T08:14:07.757Z,10000
2022-08-22T08:15:08.143Z,10000
2022-08-22T08:16:07.885Z,12000
2022-08-22T08:17:07.481Z,12300
2022-08-22T08:18:07.196Z,10000
2022-08-22T08:19:07.649Z,10000
2022-08-22T08:20:07.209Z,10000
2022-08-22T08:21:07.550Z,9600
2022-08-22T08:22:07.095Z,9500
2022-08-22T08:23:07.616Z,9470
2022-08-22T08:24:07.322Z,9447.
2022-08-22T08:25:07.489Z,9468
2022-08-22T08:26:07.781Z,9510
2022-08-22T08:27:07.285Z,9590
2022-08-22T08:28:07.609Z,9700
2022-08-22T08:29:07.342Z,9800
2022-08-22T08:30:11.149Z,10000
2022-08-22T08:31:07.185Z,10100
2022-08-22T08:32:07.745Z,10200
2022-08-22T08:33:25.091Z,10400
2022-08-22T08:34:07.786Z,10600
2022-08-22T08:35:07.162Z,10800
2022-08-22T08:36:07.779Z,11000
2022-08-22T08:37:07.489Z,11200
2022-08-22T08:38:07.765Z,11400
2022-08-22T08:39:07.419Z,11000
2022-08-22T08:40:07.962Z,11900
2022-08-22T08:41:07.859Z,12000
2022-08-22T08:42:07.188Z,10000
2022-08-22T08:43:10.831Z,0
2022-08-22T08:44:07.917Z,10000
2022-08-22T08:45:08.225Z,13000
2022-08-22T08:46:07.862Z,13000
2022-08-22T08:47:07.571Z,10000
2022-08-22T08:48:07.442Z,0
2022-08-22T08:49:08.190Z,0
2022-08-22T08:50:07.425Z,0
2022-08-22T08:51:07.221Z,10000
2022-08-22T08:52:07.984Z,10000
2022-08-22T08:53:07.661Z,10000
2022-08-22T08:54:07.459Z,11000
2022-08-22T08:56:07.479Z,10000
2022-08-22T08:57:07.434Z,0
2022-08-22T08:58:07.269Z,10000
2022-08-22T08:59:10.087Z,9600
2022-08-22T09:00:08.904Z,9490
2022-08-22T09:01:07.133Z,9000
2022-08-22T09:02:07.956Z,9200
2022-08-22T09:03:07.765Z,9210
2022-08-22T09:04:07.365Z,9300
2022-08-22T09:05:07.946Z,9600
2022-08-22T09:06:07.583Z,9000
2022-08-22T09:07:07.160Z,10000
2022-08-22T09:08:11.667Z,10000
2022-08-22T09:09:07.690Z,11000
2022-08-22T09:10:07.348Z,11000
2022-08-22T09:11:09.732Z,12000
2022-08-22T09:12:07.530Z,12000
2022-08-22T09:13:11.578Z,13000
2022-08-22T09:14:07.656Z,10000
2022-08-22T09:15:11.918Z,10000
2022-08-22T09:16:07.237Z,14800
2022-08-22T09:17:08.012Z,14000
2022-08-22T09:18:07.251Z,10000
2022-08-22T09:19:07.646Z,0
2022-08-22T09:20:17.615Z,10000
2022-08-22T09:21:07.500Z,13600
2022-08-22T09:22:14.533Z,13500
2022-08-22T09:23:10.091Z,13000
2022-08-22T09:24:07.856Z,13120
2022-08-22T09:25:07.591Z,13000
2022-08-22T09:26:07.585Z,13000
2022-08-22T09:27:08.585Z,10000
2022-08-22T09:28:07.616Z,15300
2022-08-22T09:29:07.529Z,15000
2022-08-22T09:30:07.612Z,16000
2022-08-22T09:31:16.891Z,15700
2022-08-22T09:32:07.664Z,14000
2022-08-22T09:33:07.773Z,15000
2022-08-22T09:34:07.577Z,10000
2022-08-22T09:35:07.373Z,16000
2022-08-22T09:36:12.329Z,10000
2022-08-22T09:37:07.482Z,0
2022-08-22T09:38:07.245Z,0
2022-08-22T09:39:07.290Z,0
2022-08-22T09:40:08.290Z,10000
2022-08-22T09:41:07.491Z,10000
2022-08-22T09:42:08.100Z,10000
2022-08-22T09:43:07.544Z,19000
2022-08-22T09:44:07.409Z,0
2022-08-22T09:45:07.518Z,0
2022-08-22T09:46:07.633Z,0
2022-08-22T09:47:07.383Z,0
2022-08-22T09:48:07.790Z,0
2022-08-22T09:49:07.418Z,0
2022-08-22T09:50:07.164Z,0
2022-08-22T09:51:31.216Z,10000
2022-08-22T09:52:15.611Z,10000
2022-08-22T09:53:06.932Z,0
2022-08-22T09:54:07.430Z,19000
2022-08-22T09:55:08.671Z,10000
2022-08-22T09:56:15.121Z,10000
2022-08-22T09:57:07.570Z,17000
2022-08-22T09:58:11.375Z,17300
2022-08-22T09:59:07.398Z,17260
2022-08-22T10:00:08.802Z,17000
2022-08-22T10:01:07.596Z,18000
2022-08-22T10:02:15.669Z,10000
2022-08-22T10:03:07.740Z,0
2022-08-22T10:04:07.743Z,0
2022-08-22T10:05:07.870Z,19000
2022-08-22T10:06:09.217Z,10000
2022-08-22T10:07:15.817Z,0
2022-08-22T10:08:07.130Z,0
2022-08-22T10:09:08.896Z,18000
2022-08-22T10:10:07.925Z,17000
2022-08-22T10:11:07.383Z,17200
2022-08-22T10:12:12.772Z,17020
2022-08-22T10:13:10.386Z,17000
2022-08-22T10:14:07.430Z,17000
2022-08-22T10:15:07.856Z,10000
2022-08-22T10:16:07.594Z,10000
2022-08-22T10:17:07.396Z,0
2022-08-22T10:18:07.594Z,0
2022-08-22T10:19:07.150Z,0
2022-08-22T10:20:07.674Z,0
2022-08-22T10:21:07.506Z,0
2022-08-22T10:22:07.191Z,0
2022-08-22T10:23:07.937Z,0
2022-08-22T10:24:07.523Z,0
2022-08-22T10:25:07.017Z,0
2022-08-22T10:26:07.701Z,0
2022-08-22T10:27:07.747Z,0
2022-08-22T10:28:07.296Z,0
2022-08-22T10:29:07.240Z,0
2022-08-22T10:30:08.161Z,10000
2022-08-22T10:31:07.139Z,10000
2022-08-22T10:32:13.971Z,10000
2022-08-22T10:33:07.331Z,16000
2022-08-22T10:34:07.952Z,10000
2022-08-22T10:35:07.955Z,10000
2022-08-22T10:36:07.506Z,10000
2022-08-22T10:37:07.347Z,0
2022-08-22T10:38:07.800Z,10000
2022-08-22T10:39:11.047Z,0
2022-08-22T10:40:07.717Z,0
2022-08-22T10:41:09.788Z,0
2022-08-22T10:42:07.642Z,0
2022-08-22T10:43:07.500Z,0
2022-08-22T10:44:07.116Z,0
2022-08-22T10:45:07.853Z,0
2022-08-22T10:46:12.641Z,0
2022-08-22T10:47:07.528Z,0
2022-08-22T10:48:07.989Z,13000
2022-08-22T10:49:08.214Z,0
2022-08-22T10:50:10.824Z,0
2022-08-22T10:51:08.788Z,0
2022-08-22T10:52:15.868Z,0
2022-08-22T10:53:07.215Z,0
2022-08-22T10:54:07.393Z,0
2022-08-22T10:55:09.899Z,0
2022-08-22T10:56:07.417Z,0
2022-08-22T10:57:07.368Z,20000
2022-08-22T10:58:07.341Z,0
2022-08-22T10:59:08.071Z,0
2022-08-22T11:00:08.195Z,0
2022-08-22T11:01:38.205Z,0
2022-08-22T11:02:07.482Z,0
2022-08-22T11:03:09.885Z,0
2022-08-22T11:04:12.050Z,0
2022-08-22T11:05:07.625Z,0
2022-08-22T11:06:07.153Z,0
2022-08-22T11:07:09.349Z,0
2022-08-22T11:08:07.127Z,0
2022-08-22T11:09:07.695Z,0
2022-08-22T11:10:07.490Z,0
2022-08-22T11:11:07.461Z,10000
2022-08-22T11:12:07.181Z,0
2022-08-22T11:13:07.769Z,0
2022-08-22T11:14:07.278Z,10000
2022-08-22T11:15:07.886Z,15000
2022-08-22T11:16:07.512Z,16500
2022-08-22T11:17:27.407Z,10000
2022-08-22T11:18:07.474Z,0
2022-08-22T11:19:15.031Z,10000
2022-08-22T11:20:07.037Z,10000
2022-08-22T11:21:07.651Z,18000
2022-08-22T11:22:07.442Z,0
2022-08-22T11:23:07.226Z,0
2022-08-22T11:24:07.196Z,10000
2022-08-22T11:25:07.184Z,12000
2022-08-22T11:26:07.903Z,12000
2022-08-22T11:27:07.558Z,10000
2022-08-22T11:28:07.699Z,0
2022-08-22T11:29:13.662Z,0
2022-08-22T11:30:08.060Z,0
2022-08-22T11:31:07.597Z,0
2022-08-22T11:32:07.835Z,0
2022-08-22T11:33:07.606Z,0
2022-08-22T11:34:07.828Z,0
2022-08-22T11:35:09.091Z,0
2022-08-22T11:36:07.213Z,16000
2022-08-22T11:37:09.585Z,10000
2022-08-22T11:38:10.989Z,14000
2022-08-22T11:39:09.856Z,15000
2022-08-22T11:40:07.675Z,10000
2022-08-22T11:41:07.348Z,10000
2022-08-22T11:42:07.225Z,10000
2022-08-22T11:43:10.637Z,0
2022-08-22T11:44:07.341Z,0
2022-08-22T11:45:08.316Z,0
2022-08-22T11:46:07.348Z,0
2022-08-22T11:47:07.173Z,0
2022-08-22T11:48:07.271Z,0
2022-08-22T11:49:07.193Z,0
2022-08-22T11:50:13.388Z,0
2022-08-22T11:51:13.579Z,0
2022-08-22T11:52:07.772Z,0
2022-08-22T11:53:07.724Z,0
2022-08-22T11:54:07.622Z,0
2022-08-22T11:55:07.364Z,0
2022-08-22T11:56:07.226Z,0
2022-08-22T11:57:07.561Z,0
2022-08-22T11:58:07.202Z,0
2022-08-22T11:59:07.379Z,0
2022-08-22T12:00:08.723Z,0
2022-08-22T12:01:11.723Z,0
2022-08-22T12:02:08.692Z,0
2022-08-22T12:03:07.619Z,0
2022-08-22T12:04:09.811Z,0
2022-08-22T12:05:07.840Z,0
2022-08-22T12:06:07.719Z,0
2022-08-22T12:07:07.560Z,0
2022-08-22T12:08:07.397Z,0
2022-08-22T12:09:07.428Z,0
2022-08-22T12:10:07.790Z,0
2022-08-22T12:11:07.974Z,0
2022-08-22T12:12:07.546Z,0
2022-08-22T12:13:07.717Z,0
2022-08-22T12:14:07.249Z,0
2022-08-22T12:15:08.881Z,0
2022-08-22T12:16:07.826Z,0
2022-08-22T12:17:07.828Z,0
2022-08-22T12:18:07.552Z,0
2022-08-22T12:19:07.104Z,0
2022-08-22T12:20:16.853Z,0
2022-08-22T12:21:07.594Z,0
2022-08-22T12:22:07.500Z,0
2022-08-22T12:23:07.291Z,0
2022-08-22T12:24:11.268Z,0
2022-08-22T12:25:07.310Z,0
2022-08-22T12:26:10.807Z,0
2022-08-22T12:27:07.943Z,0
2022-08-22T12:28:07.424Z,0
2022-08-22T12:29:15.357Z,0
2022-08-22T12:30:12.900Z,0
2022-08-22T12:31:07.755Z,0
2022-08-22T12:32:10.067Z,0
2022-08-22T12:33:08.038Z,20000
2022-08-22T12:34:08.054Z,0
2022-08-22T12:35:13.763Z,0
2022-08-22T12:36:09.592Z,0
2022-08-22T12:37:07.876Z,0
2022-08-22T12:38:27.872Z,0
2022-08-22T12:39:07.907Z,0
2022-08-22T12:40:07.924Z,20000
2022-08-22T12:41:08.197Z,19000
2022-08-22T12:42:08.015Z,19000
2022-08-22T12:43:07.334Z,19000
2022-08-22T12:44:07.686Z,0
2022-08-22T12:45:08.248Z,0
2022-08-22T12:46:07.444Z,0
2022-08-22T12:47:09.193Z,0
2022-08-22T12:48:07.490Z,0
2022-08-22T12:49:07.908Z,10000
2022-08-22T12:50:07.588Z,10000
2022-08-22T12:51:16.795Z,15000
2022-08-22T12:52:07.554Z,10000
2022-08-22T12:53:07.278Z,13000
2022-08-22T12:54:07.337Z,13400
2022-08-22T12:55:07.308Z,13340
2022-08-22T12:56:10.367Z,13390
2022-08-22T12:57:10.515Z,13200
2022-08-22T12:58:07.606Z,13110
2022-08-22T12:59:07.483Z,13130
2022-08-22T13:00:07.941Z,13000
2022-08-22T13:01:07.667Z,12700
2022-08-22T13:02:08.223Z,12400
2022-08-22T13:03:07.774Z,12100
2022-08-22T13:04:08.262Z,11900
2022-08-22T13:05:07.764Z,11600
2022-08-22T13:06:07.903Z,11550
2022-08-22T13:07:08.029Z,11600
2022-08-22T13:08:07.677Z,11000
2022-08-22T13:09:09.870Z,12000
2022-08-22T13:10:07.842Z,12000
2022-08-22T13:11:09.853Z,13000
2022-08-22T13:12:07.465Z,14000
2022-08-22T13:13:12.265Z,14000
2022-08-22T13:14:07.738Z,15000
2022-08-22T13:15:07.391Z,10000
2022-08-22T13:16:07.545Z,10000
2022-08-22T13:17:23.826Z,0
2022-08-22T13:18:28.884Z,20000
2022-08-22T13:19:08.024Z,20000
2022-08-22T13:20:07.433Z,0
2022-08-22T13:21:11.436Z,0
2022-08-22T13:22:07.652Z,0
2022-08-22T13:23:12.431Z,0
2022-08-22T13:24:10.294Z,0
2022-08-22T13:25:08.719Z,20000
2022-08-22T13:26:07.560Z,0
2022-08-22T13:27:07.938Z,10000
2022-08-22T13:28:08.506Z,0
2022-08-22T13:29:25.104Z,0
2022-08-22T13:30:12.360Z,0
2022-08-22T13:31:07.603Z,10000
2022-08-22T13:32:08.043Z,13000
2022-08-22T13:33:08.657Z,13300
2022-08-22T13:34:07.712Z,13300
2022-08-22T13:35:07.926Z,13480
2022-08-22T13:36:07.962Z,13300
2022-08-22T13:37:07.681Z,13280
2022-08-22T13:38:12.037Z,13300